sensor_id;sensor_type;location;lat;lon;timestamp;pressure;altitude;pressure_sealevel;temperature;humidity
17209;BME280;8720;48.488;9.202;2023-10-08T00:00:44;97915.75;;;19.99;36.94
17209;BME280;8720;48.488;9.202;2023-10-08T00:03:14;97922.06;;;19.97;37.17
17209;BME280;8720;48.488;9.202;2023-10-08T00:05:43;97911.50;;;19.95;37.14
17209;BME280;8720;48.488;9.202;2023-10-08T00:08:13;97920.47;;;19.92;36.94
17209;BME280;8720;48.488;9.202;2023-10-08T00:10:43;97909.94;;;19.91;37.34
17209;BME280;8720;48.488;9.202;2023-10-08T00:13:11;97915.31;;;19.89;37.16
17209;BME280;8720;48.488;9.202;2023-10-08T00:15:39;97909.22;;;19.87;37.33
17209;BME280;8720;48.488;9.202;2023-10-08T00:18:18;97902.25;;;19.85;37.59
17209;BME280;8720;48.488;9.202;2023-10-08T00:20:46;97904.97;;;19.83;37.55
17209;BME280;8720;48.488;9.202;2023-10-08T00:23:22;97901.53;;;19.81;37.76
17209;BME280;8720;48.488;9.202;2023-10-08T00:25:53;97897.13;;;19.80;37.71
17209;BME280;8720;48.488;9.202;2023-10-08T00:28:21;97896.34;;;19.78;37.78
17209;BME280;8720;48.488;9.202;2023-10-08T00:30:50;97893.69;;;19.78;38.12
17209;BME280;8720;48.488;9.202;2023-10-08T00:33:19;97886.66;;;19.77;37.89
17209;BME280;8720;48.488;9.202;2023-10-08T00:35:47;97889.31;;;19.77;38.37
17209;BME280;8720;48.488;9.202;2023-10-08T00:38:15;97881.44;;;19.76;38.69
17209;BME280;8720;48.488;9.202;2023-10-08T00:40:48;97864.91;;;19.69;38.33
17209;BME280;8720;48.488;9.202;2023-10-08T00:43:34;97869.31;;;19.70;38.22
17209;BME280;8720;48.488;9.202;2023-10-08T00:46:02;97827.97;;;19.46;38.20
17209;BME280;8720;48.488;9.202;2023-10-08T00:48:43;97858.03;;;19.65;38.22
17209;BME280;8720;48.488;9.202;2023-10-08T00:51:11;97853.59;;;19.66;38.26
17209;BME280;8720;48.488;9.202;2023-10-08T00:53:55;97844.81;;;19.64;38.39
17209;BME280;8720;48.488;9.202;2023-10-08T00:56:29;97848.97;;;19.69;38.43
17209;BME280;8720;48.488;9.202;2023-10-08T00:59:12;97836.00;;;19.63;38.44
17209;BME280;8720;48.488;9.202;2023-10-08T01:01:42;97842.97;;;19.66;38.29
17209;BME280;8720;48.488;9.202;2023-10-08T01:04:17;97846.63;;;19.63;38.13
17209;BME280;8720;48.488;9.202;2023-10-08T01:06:51;97831.72;;;19.61;38.15
17209;BME280;8720;48.488;9.202;2023-10-08T01:09:25;97833.56;;;19.59;38.08
17209;BME280;8720;48.488;9.202;2023-10-08T01:12:10;97839.34;;;19.67;38.04
17209;BME280;8720;48.488;9.202;2023-10-08T01:14:42;97838.44;;;19.68;37.77
17209;BME280;8720;48.488;9.202;2023-10-08T01:17:10;97837.56;;;19.67;37.96
17209;BME280;8720;48.488;9.202;2023-10-08T01:19:41;97840.91;;;19.72;37.88
17209;BME280;8720;48.488;9.202;2023-10-08T01:22:13;97841.69;;;19.74;38.31
17209;BME280;8720;48.488;9.202;2023-10-08T01:24:45;97829.47;;;19.70;38.12
17209;BME280;8720;48.488;9.202;2023-10-08T01:27:14;97836.22;;;19.77;37.94
17209;BME280;8720;48.488;9.202;2023-10-08T01:29:47;97837.91;;;19.78;37.91
17209;BME280;8720;48.488;9.202;2023-10-08T01:32:16;97836.13;;;19.79;37.87
17209;BME280;8720;48.488;9.202;2023-10-08T01:34:45;97833.28;;;19.83;37.39
17209;BME280;8720;48.488;9.202;2023-10-08T01:37:15;97826.16;;;19.84;37.90
17209;BME280;8720;48.488;9.202;2023-10-08T01:39:43;97835.72;;;19.88;37.56
17209;BME280;8720;48.488;9.202;2023-10-08T01:42:12;97831.25;;;19.88;37.98
17209;BME280;8720;48.488;9.202;2023-10-08T01:44:45;97839.22;;;19.88;37.82
17209;BME280;8720;48.488;9.202;2023-10-08T01:47:14;97830.44;;;19.86;38.28
17209;BME280;8720;48.488;9.202;2023-10-08T01:49:42;97834.97;;;19.84;38.36
17209;BME280;8720;48.488;9.202;2023-10-08T01:52:12;97832.47;;;19.81;37.98
17209;BME280;8720;48.488;9.202;2023-10-08T01:54:46;97825.59;;;19.77;38.15
17209;BME280;8720;48.488;9.202;2023-10-08T01:57:14;97824.00;;;19.73;37.98
17209;BME280;8720;48.488;9.202;2023-10-08T01:59:43;97811.38;;;19.60;38.48
17209;BME280;8720;48.488;9.202;2023-10-08T02:04:44;97809.88;;;19.54;38.16
17209;BME280;8720;48.488;9.202;2023-10-08T02:07:11;97815.00;;;19.59;38.38
17209;BME280;8720;48.488;9.202;2023-10-08T02:09:39;97812.47;;;19.56;38.95
17209;BME280;8720;48.488;9.202;2023-10-08T02:12:08;97808.31;;;19.50;38.78
17209;BME280;8720;48.488;9.202;2023-10-08T02:14:36;97802.28;;;19.47;38.70
17209;BME280;8720;48.488;9.202;2023-10-08T02:17:03;97806.66;;;19.48;38.71
17209;BME280;8720;48.488;9.202;2023-10-08T02:19:32;97800.78;;;19.41;39.05
17209;BME280;8720;48.488;9.202;2023-10-08T02:22:02;97810.69;;;19.38;39.07
17209;BME280;8720;48.488;9.202;2023-10-08T02:24:31;97813.19;;;19.41;39.06
17209;BME280;8720;48.488;9.202;2023-10-08T02:26:59;97810.72;;;19.36;38.62
17209;BME280;8720;48.488;9.202;2023-10-08T02:29:30;97808.06;;;19.36;38.62
17209;BME280;8720;48.488;9.202;2023-10-08T02:31:58;97805.75;;;19.29;38.58
17209;BME280;8720;48.488;9.202;2023-10-08T02:34:26;97808.22;;;19.33;38.79
17209;BME280;8720;48.488;9.202;2023-10-08T02:36:53;97805.63;;;19.32;38.86
17209;BME280;8720;48.488;9.202;2023-10-08T02:39:21;97815.38;;;19.31;38.91
17209;BME280;8720;48.488;9.202;2023-10-08T02:41:53;97797.22;;;19.22;38.96
17209;BME280;8720;48.488;9.202;2023-10-08T02:44:22;97813.78;;;19.27;39.11
17209;BME280;8720;48.488;9.202;2023-10-08T02:46:52;97813.94;;;19.24;38.93
17209;BME280;8720;48.488;9.202;2023-10-08T02:49:21;97816.88;;;19.18;39.08
17209;BME280;8720;48.488;9.202;2023-10-08T02:51:50;97817.94;;;19.14;39.06
17209;BME280;8720;48.488;9.202;2023-10-08T02:54:18;97819.53;;;19.18;39.51
17209;BME280;8720;48.488;9.202;2023-10-08T02:56:50;97820.59;;;19.14;39.52
17209;BME280;8720;48.488;9.202;2023-10-08T02:59:18;97811.22;;;19.05;39.49
17209;BME280;8720;48.488;9.202;2023-10-08T03:01:48;97814.91;;;19.03;39.95
17209;BME280;8720;48.488;9.202;2023-10-08T03:04:19;97814.91;;;19.03;39.58
17209;BME280;8720;48.488;9.202;2023-10-08T03:06:46;97824.66;;;19.02;39.49
17209;BME280;8720;48.488;9.202;2023-10-08T03:09:17;97816.75;;;19.01;39.58
17209;BME280;8720;48.488;9.202;2023-10-08T03:11:48;97816.09;;;18.96;39.57
17209;BME280;8720;48.488;9.202;2023-10-08T03:14:16;97823.13;;;18.97;39.52
17209;BME280;8720;48.488;9.202;2023-10-08T03:16:50;97826.69;;;18.96;39.82
17209;BME280;8720;48.488;9.202;2023-10-08T03:19:21;97815.28;;;18.94;39.46
17209;BME280;8720;48.488;9.202;2023-10-08T03:21:50;97816.16;;;18.94;39.66
17209;BME280;8720;48.488;9.202;2023-10-08T03:24:23;97829.22;;;18.99;39.55
17209;BME280;8720;48.488;9.202;2023-10-08T03:27:05;97821.19;;;19.00;39.64
17209;BME280;8720;48.488;9.202;2023-10-08T03:29:33;97826.44;;;19.02;39.27
17209;BME280;8720;48.488;9.202;2023-10-08T03:32:08;97821.91;;;19.04;39.65
17209;BME280;8720;48.488;9.202;2023-10-08T03:34:49;97821.91;;;19.04;39.71
17209;BME280;8720;48.488;9.202;2023-10-08T03:37:22;97814.75;;;19.06;39.54
17209;BME280;8720;48.488;9.202;2023-10-08T03:39:55;97815.81;;;19.02;39.57
17209;BME280;8720;48.488;9.202;2023-10-08T03:42:33;97820.84;;;19.08;39.60
17209;BME280;8720;48.488;9.202;2023-10-08T03:45:07;97820.94;;;19.07;39.48
17209;BME280;8720;48.488;9.202;2023-10-08T03:47:39;97822.72;;;19.06;39.72
17209;BME280;8720;48.488;9.202;2023-10-08T03:50:13;97823.69;;;19.03;39.93
17209;BME280;8720;48.488;9.202;2023-10-08T03:52:43;97823.78;;;19.02;40.21
17209;BME280;8720;48.488;9.202;2023-10-08T03:55:12;97822.19;;;18.98;40.01
17209;BME280;8720;48.488;9.202;2023-10-08T03:57:47;97816.16;;;18.94;40.15
17209;BME280;8720;48.488;9.202;2023-10-08T04:00:23;97810.41;;;18.85;40.15
17209;BME280;8720;48.488;9.202;2023-10-08T04:02:57;97813.94;;;18.85;40.34
17209;BME280;8720;48.488;9.202;2023-10-08T04:05:36;97820.94;;;18.86;40.63
17209;BME280;8720;48.488;9.202;2023-10-08T04:08:10;97830.75;;;18.84;40.35
17209;BME280;8720;48.488;9.202;2023-10-08T04:10:47;97830.91;;;18.81;40.49
17209;BME280;8720;48.488;9.202;2023-10-08T04:13:31;97833.75;;;18.77;40.77
17209;BME280;8720;48.488;9.202;2023-10-08T04:15:58;97830.22;;;18.76;40.93
17209;BME280;8720;48.488;9.202;2023-10-08T04:18:26;97832.16;;;18.73;40.73
17209;BME280;8720;48.488;9.202;2023-10-08T04:20:55;97827.91;;;18.69;41.06
17209;BME280;8720;48.488;9.202;2023-10-08T04:23:30;97826.53;;;18.60;41.24
17209;BME280;8720;48.488;9.202;2023-10-08T04:25:58;97832.66;;;18.61;41.15
17209;BME280;8720;48.488;9.202;2023-10-08T04:28:26;97839.97;;;18.56;41.24
17209;BME280;8720;48.488;9.202;2023-10-08T04:31:00;97836.66;;;18.51;41.35
17209;BME280;8720;48.488;9.202;2023-10-08T04:33:44;97829.94;;;18.42;41.41
17209;BME280;8720;48.488;9.202;2023-10-08T04:36:14;97837.00;;;18.42;41.41
17209;BME280;8720;48.488;9.202;2023-10-08T04:38:46;97835.53;;;18.35;41.55
17209;BME280;8720;48.488;9.202;2023-10-08T04:41:15;97830.38;;;18.32;41.46
17209;BME280;8720;48.488;9.202;2023-10-08T04:43:45;97829.56;;;18.30;41.81
17209;BME280;8720;48.488;9.202;2023-10-08T04:46:15;97826.16;;;18.26;41.70
17209;BME280;8720;48.488;9.202;2023-10-08T04:49:00;97821.09;;;18.22;41.72
17209;BME280;8720;48.488;9.202;2023-10-08T04:51:32;97824.88;;;18.14;41.83
17209;BME280;8720;48.488;9.202;2023-10-08T04:54:10;97816.94;;;18.14;41.82
17209;BME280;8720;48.488;9.202;2023-10-08T04:56:42;97813.69;;;18.08;42.26
17209;BME280;8720;48.488;9.202;2023-10-08T04:59:10;97827.69;;;18.11;42.20
17209;BME280;8720;48.488;9.202;2023-10-08T05:01:38;97821.72;;;18.06;42.52
17209;BME280;8720;48.488;9.202;2023-10-08T05:04:14;97819.19;;;18.03;42.32
17209;BME280;8720;48.488;9.202;2023-10-08T05:06:54;97818.59;;;17.97;42.47
17209;BME280;8720;48.488;9.202;2023-10-08T05:09:39;97827.44;;;17.96;42.40
17209;BME280;8720;48.488;9.202;2023-10-08T05:12:13;97814.75;;;17.82;42.93
17209;BME280;8720;48.488;9.202;2023-10-08T05:15:00;97821.53;;;17.89;42.84
17209;BME280;8720;48.488;9.202;2023-10-08T05:17:47;97830.38;;;17.88;42.66
17209;BME280;8720;48.488;9.202;2023-10-08T05:20:24;97817.63;;;17.76;42.75
17209;BME280;8720;48.488;9.202;2023-10-08T05:23:13;97830.56;;;17.84;42.79
17209;BME280;8720;48.488;9.202;2023-10-08T05:26:19;97828.06;;;17.81;42.95
17209;BME280;8720;48.488;9.202;2023-10-08T05:28:57;97849.22;;;17.81;43.20
17209;BME280;8720;48.488;9.202;2023-10-08T05:31:50;97836.97;;;17.78;43.02
17209;BME280;8720;48.488;9.202;2023-10-08T05:34:40;97839.00;;;17.93;43.94
17209;BME280;8720;48.488;9.202;2023-10-08T05:37:17;97836.50;;;17.90;43.67
17209;BME280;8720;48.488;9.202;2023-10-08T05:40:00;97838.34;;;17.88;43.14
17209;BME280;8720;48.488;9.202;2023-10-08T05:42:47;97848.13;;;17.86;43.29
17209;BME280;8720;48.488;9.202;2023-10-08T05:45:15;97844.56;;;17.87;43.33
17209;BME280;8720;48.488;9.202;2023-10-08T05:47:56;97840.09;;;17.88;43.29
17209;BME280;8720;48.488;9.202;2023-10-08T05:50:41;97851.56;;;17.88;43.08
17209;BME280;8720;48.488;9.202;2023-10-08T05:53:21;97854.16;;;17.90;43.22
17209;BME280;8720;48.488;9.202;2023-10-08T05:56:10;97859.34;;;17.93;43.27
17209;BME280;8720;48.488;9.202;2023-10-08T05:58:51;97866.28;;;17.95;43.13
17209;BME280;8720;48.488;9.202;2023-10-08T06:01:29;97865.22;;;17.99;43.30
17209;BME280;8720;48.488;9.202;2023-10-08T06:04:06;97873.06;;;18.02;43.31
17209;BME280;8720;48.488;9.202;2023-10-08T06:06:47;97872.03;;;18.06;43.63
17209;BME280;8720;48.488;9.202;2023-10-08T06:09:24;97874.53;;;18.09;43.91
17209;BME280;8720;48.488;9.202;2023-10-08T06:12:03;97879.72;;;18.12;43.96
17209;BME280;8720;48.488;9.202;2023-10-08T06:14:35;97892.84;;;18.15;44.13
17209;BME280;8720;48.488;9.202;2023-10-08T06:17:20;97891.00;;;18.17;43.81
17209;BME280;8720;48.488;9.202;2023-10-08T06:20:06;97886.50;;;18.20;44.10
17209;BME280;8720;48.488;9.202;2023-10-08T06:22:36;97890.81;;;18.22;44.12
17209;BME280;8720;48.488;9.202;2023-10-08T06:25:03;97898.63;;;18.25;44.27
17209;BME280;8720;48.488;9.202;2023-10-08T06:27:45;97893.97;;;18.32;44.14
17209;BME280;8720;48.488;9.202;2023-10-08T06:30:13;97890.25;;;18.36;44.44
17209;BME280;8720;48.488;9.202;2023-10-08T06:32:43;97899.75;;;18.41;44.59
17209;BME280;8720;48.488;9.202;2023-10-08T06:35:12;97905.66;;;18.48;44.43
17209;BME280;8720;48.488;9.202;2023-10-08T06:37:45;97900.19;;;18.52;44.55
17209;BME280;8720;48.488;9.202;2023-10-08T06:40:15;97902.44;;;18.61;44.73
17209;BME280;8720;48.488;9.202;2023-10-08T06:43:10;97898.63;;;18.68;44.93
17209;BME280;8720;48.488;9.202;2023-10-08T06:45:51;97905.31;;;18.77;45.13
17209;BME280;8720;48.488;9.202;2023-10-08T06:48:20;97915.53;;;18.86;44.97
17209;BME280;8720;48.488;9.202;2023-10-08T06:50:51;97910.75;;;18.94;44.65
17209;BME280;8720;48.488;9.202;2023-10-08T06:53:23;97913.09;;;19.01;44.61
17209;BME280;8720;48.488;9.202;2023-10-08T06:55:50;97902.94;;;19.11;44.90
17209;BME280;8720;48.488;9.202;2023-10-08T06:58:24;97891.88;;;19.22;44.65
17209;BME280;8720;48.488;9.202;2023-10-08T07:00:52;97893.88;;;19.37;44.22
17209;BME280;8720;48.488;9.202;2023-10-08T07:03:21;97887.75;;;19.55;43.99
17209;BME280;8720;48.488;9.202;2023-10-08T07:05:49;97892.97;;;19.75;43.96
17209;BME280;8720;48.488;9.202;2023-10-08T07:08:27;97885.88;;;19.94;43.80
17209;BME280;8720;48.488;9.202;2023-10-08T07:10:59;97880.41;;;20.16;43.82
17209;BME280;8720;48.488;9.202;2023-10-08T07:13:32;97887.84;;;20.45;43.95
17209;BME280;8720;48.488;9.202;2023-10-08T07:16:02;97876.63;;;20.74;43.95
17209;BME280;8720;48.488;9.202;2023-10-08T07:18:32;97875.53;;;21.12;43.61
17209;BME280;8720;48.488;9.202;2023-10-08T07:21:00;97878.91;;;21.48;43.50
17209;BME280;8720;48.488;9.202;2023-10-08T07:23:28;97885.00;;;21.83;43.33
17209;BME280;8720;48.488;9.202;2023-10-08T07:26:02;97876.03;;;22.17;43.37
17209;BME280;8720;48.488;9.202;2023-10-08T07:28:38;97877.69;;;22.49;42.66
17209;BME280;8720;48.488;9.202;2023-10-08T07:31:13;97879.47;;;22.80;42.17
17209;BME280;8720;48.488;9.202;2023-10-08T07:33:42;97867.91;;;23.09;42.32
17209;BME280;8720;48.488;9.202;2023-10-08T07:36:11;97864.63;;;23.33;42.14
17209;BME280;8720;48.488;9.202;2023-10-08T07:38:44;97857.78;;;23.58;41.84
17209;BME280;8720;48.488;9.202;2023-10-08T07:41:13;97861.78;;;23.79;41.53
17209;BME280;8720;48.488;9.202;2023-10-08T07:43:42;97865.78;;;24.00;41.79
17209;BME280;8720;48.488;9.202;2023-10-08T07:46:10;97876.16;;;24.18;41.20
17209;BME280;8720;48.488;9.202;2023-10-08T07:48:39;97868.00;;;24.34;40.64
17209;BME280;8720;48.488;9.202;2023-10-08T07:51:08;97878.78;;;24.47;39.83
17209;BME280;8720;48.488;9.202;2023-10-08T07:53:36;97876.34;;;24.56;39.92
17209;BME280;8720;48.488;9.202;2023-10-08T07:56:06;97880.31;;;24.63;38.96
17209;BME280;8720;48.488;9.202;2023-10-08T07:58:35;97891.00;;;24.77;38.98
17209;BME280;8720;48.488;9.202;2023-10-08T08:01:07;97892.75;;;24.91;38.67
17209;BME280;8720;48.488;9.202;2023-10-08T08:03:36;97881.47;;;25.12;38.12
17209;BME280;8720;48.488;9.202;2023-10-08T08:06:05;97887.69;;;25.26;38.11
17209;BME280;8720;48.488;9.202;2023-10-08T08:08:33;97886.19;;;25.34;37.67
17209;BME280;8720;48.488;9.202;2023-10-08T08:11:01;97890.84;;;25.45;37.64
17209;BME280;8720;48.488;9.202;2023-10-08T08:13:33;97891.91;;;25.55;37.34
17209;BME280;8720;48.488;9.202;2023-10-08T08:16:01;97893.94;;;25.64;37.02
17209;BME280;8720;48.488;9.202;2023-10-08T08:18:44;97891.59;;;25.72;37.33
17209;BME280;8720;48.488;9.202;2023-10-08T08:21:13;97872.50;;;25.64;37.46
17209;BME280;8720;48.488;9.202;2023-10-08T08:23:43;97895.84;;;25.87;37.54
17209;BME280;8720;48.488;9.202;2023-10-08T08:26:15;97896.38;;;25.92;36.68
17209;BME280;8720;48.488;9.202;2023-10-08T08:28:55;97888.63;;;26.00;36.95
17209;BME280;8720;48.488;9.202;2023-10-08T08:31:23;97895.34;;;26.07;36.65
17209;BME280;8720;48.488;9.202;2023-10-08T08:33:54;97892.41;;;26.10;36.34
17209;BME280;8720;48.488;9.202;2023-10-08T08:36:27;97884.88;;;26.15;36.11
17209;BME280;8720;48.488;9.202;2023-10-08T08:38:55;97884.69;;;26.18;36.85
17209;BME280;8720;48.488;9.202;2023-10-08T08:41:23;97889.91;;;26.20;36.98
17209;BME280;8720;48.488;9.202;2023-10-08T08:43:52;97884.56;;;26.20;36.41
17209;BME280;8720;48.488;9.202;2023-10-08T08:46:32;97899.47;;;26.24;37.39
17209;BME280;8720;48.488;9.202;2023-10-08T08:49:05;97898.16;;;26.29;36.24
17209;BME280;8720;48.488;9.202;2023-10-08T08:51:34;97889.91;;;26.32;36.71
17209;BME280;8720;48.488;9.202;2023-10-08T08:54:05;97895.78;;;26.37;36.23
17209;BME280;8720;48.488;9.202;2023-10-08T08:56:34;97882.13;;;26.40;36.07
17209;BME280;8720;48.488;9.202;2023-10-08T08:59:04;97885.97;;;26.49;35.71
17209;BME280;8720;48.488;9.202;2023-10-08T09:01:32;97894.19;;;26.58;35.29
17209;BME280;8720;48.488;9.202;2023-10-08T09:04:04;97918.41;;;26.69;34.91
17209;BME280;8720;48.488;9.202;2023-10-08T09:06:33;97917.41;;;26.83;34.36
17209;BME280;8720;48.488;9.202;2023-10-08T09:09:01;97924.44;;;26.96;34.15
17209;BME280;8720;48.488;9.202;2023-10-08T09:11:48;97914.47;;;27.10;33.90
17209;BME280;8720;48.488;9.202;2023-10-08T09:14:19;97926.75;;;27.25;33.83
17209;BME280;8720;48.488;9.202;2023-10-08T09:16:47;97912.78;;;27.32;33.75
17209;BME280;8720;48.488;9.202;2023-10-08T09:19:17;97930.03;;;27.52;33.45
17209;BME280;8720;48.488;9.202;2023-10-08T09:22:00;97923.81;;;27.62;33.10
17209;BME280;8720;48.488;9.202;2023-10-08T09:24:30;97930.22;;;27.72;33.31
17209;BME280;8720;48.488;9.202;2023-10-08T09:27:00;97925.69;;;27.84;32.98
17209;BME280;8720;48.488;9.202;2023-10-08T09:29:28;97934.78;;;27.94;32.82
17209;BME280;8720;48.488;9.202;2023-10-08T09:31:57;97935.75;;;28.04;32.23
17209;BME280;8720;48.488;9.202;2023-10-08T09:34:29;97931.63;;;28.11;31.83
17209;BME280;8720;48.488;9.202;2023-10-08T09:37:00;97942.72;;;28.18;31.62
17209;BME280;8720;48.488;9.202;2023-10-08T09:39:29;97940.53;;;28.23;31.16
17209;BME280;8720;48.488;9.202;2023-10-08T09:42:01;97905.66;;;28.10;30.82
17209;BME280;8720;48.488;9.202;2023-10-08T09:44:30;97942.13;;;28.36;31.33
17209;BME280;8720;48.488;9.202;2023-10-08T09:47:03;97947.97;;;28.41;30.64
17209;BME280;8720;48.488;9.202;2023-10-08T09:49:38;97937.69;;;28.46;31.14
17209;BME280;8720;48.488;9.202;2023-10-08T09:52:09;97940.13;;;28.49;30.90
17209;BME280;8720;48.488;9.202;2023-10-08T09:54:44;97938.91;;;28.53;30.84
17209;BME280;8720;48.488;9.202;2023-10-08T09:57:14;97939.69;;;28.55;31.23
17209;BME280;8720;48.488;9.202;2023-10-08T09:59:47;97941.16;;;28.59;31.37
17209;BME280;8720;48.488;9.202;2023-10-08T10:02:17;97942.72;;;28.62;31.45
17209;BME280;8720;48.488;9.202;2023-10-08T10:04:50;97945.03;;;28.66;31.49
17209;BME280;8720;48.488;9.202;2023-10-08T10:07:19;97935.47;;;28.73;31.22
17209;BME280;8720;48.488;9.202;2023-10-08T10:09:50;97935.44;;;28.85;30.96
17209;BME280;8720;48.488;9.202;2023-10-08T10:12:26;97936.28;;;28.96;30.32
17209;BME280;8720;48.488;9.202;2023-10-08T10:14:55;97942.34;;;29.09;30.17
17209;BME280;8720;48.488;9.202;2023-10-08T10:17:28;97938.66;;;29.21;29.18
17209;BME280;8720;48.488;9.202;2023-10-08T10:19:59;97935.31;;;29.29;29.14
17209;BME280;8720;48.488;9.202;2023-10-08T10:22:28;97923.28;;;29.33;28.62
17209;BME280;8720;48.488;9.202;2023-10-08T10:24:57;97931.75;;;29.49;28.69
17209;BME280;8720;48.488;9.202;2023-10-08T10:27:26;97934.28;;;29.62;28.38
17209;BME280;8720;48.488;9.202;2023-10-08T10:30:03;97924.28;;;29.73;28.84
17209;BME280;8720;48.488;9.202;2023-10-08T10:32:34;97915.09;;;29.85;27.88
17209;BME280;8720;48.488;9.202;2023-10-08T10:35:04;97929.44;;;30.06;27.91
17209;BME280;8720;48.488;9.202;2023-10-08T10:37:38;97919.13;;;30.21;27.63
17209;BME280;8720;48.488;9.202;2023-10-08T10:40:09;97922.63;;;30.32;27.09
17209;BME280;8720;48.488;9.202;2023-10-08T10:42:39;97919.94;;;30.42;27.26
17209;BME280;8720;48.488;9.202;2023-10-08T10:45:14;97909.31;;;30.50;27.19
17209;BME280;8720;48.488;9.202;2023-10-08T10:48:02;97913.88;;;30.59;26.91
17209;BME280;8720;48.488;9.202;2023-10-08T10:50:41;97903.94;;;30.69;26.79
17209;BME280;8720;48.488;9.202;2023-10-08T10:53:34;97907.94;;;30.75;26.78
17209;BME280;8720;48.488;9.202;2023-10-08T10:56:12;97907.38;;;30.81;26.72
17209;BME280;8720;48.488;9.202;2023-10-08T10:58:47;97912.41;;;30.85;26.61
17209;BME280;8720;48.488;9.202;2023-10-08T11:01:24;97910.53;;;30.95;26.54
17209;BME280;8720;48.488;9.202;2023-10-08T11:03:57;97906.56;;;30.99;26.07
17209;BME280;8720;48.488;9.202;2023-10-08T11:06:26;97901.72;;;31.03;26.32
17209;BME280;8720;48.488;9.202;2023-10-08T11:08:55;97899.47;;;31.08;26.01
17209;BME280;8720;48.488;9.202;2023-10-08T11:11:28;97892.63;;;31.13;25.39
17209;BME280;8720;48.488;9.202;2023-10-08T11:13:57;97893.19;;;31.17;25.33
17209;BME280;8720;48.488;9.202;2023-10-08T11:16:26;97892.94;;;31.20;25.66
17209;BME280;8720;48.488;9.202;2023-10-08T11:18:58;97888.94;;;31.24;25.56
17209;BME280;8720;48.488;9.202;2023-10-08T11:21:48;97890.34;;;31.28;25.90
17209;BME280;8720;48.488;9.202;2023-10-08T11:24:28;97896.03;;;31.34;25.58
17209;BME280;8720;48.488;9.202;2023-10-08T11:26:56;97892.34;;;31.36;25.19
17209;BME280;8720;48.488;9.202;2023-10-08T11:29:42;97890.47;;;31.36;25.10
17209;BME280;8720;48.488;9.202;2023-10-08T11:32:10;97901.88;;;31.40;25.02
17209;BME280;8720;48.488;9.202;2023-10-08T11:34:41;97890.09;;;31.41;25.60
17209;BME280;8720;48.488;9.202;2023-10-08T11:37:11;97888.25;;;31.41;25.27
17209;BME280;8720;48.488;9.202;2023-10-08T11:39:47;97898.19;;;31.50;25.22
17209;BME280;8720;48.488;9.202;2023-10-08T11:42:15;97904.31;;;31.52;25.06
17209;BME280;8720;48.488;9.202;2023-10-08T11:45:00;97894.34;;;31.53;25.05
17209;BME280;8720;48.488;9.202;2023-10-08T11:47:44;97899.88;;;31.51;25.44
17209;BME280;8720;48.488;9.202;2023-10-08T11:50:12;97895.47;;;31.50;25.26
17209;BME280;8720;48.488;9.202;2023-10-08T11:52:46;97893.09;;;31.47;25.14
17209;BME280;8720;48.488;9.202;2023-10-08T11:55:14;97884.25;;;31.45;24.95
17209;BME280;8720;48.488;9.202;2023-10-08T11:57:46;97886.09;;;31.45;25.10
17209;BME280;8720;48.488;9.202;2023-10-08T12:00:16;97880.84;;;31.43;25.33
17209;BME280;8720;48.488;9.202;2023-10-08T12:02:52;97864.59;;;31.33;25.03
17209;BME280;8720;48.488;9.202;2023-10-08T12:05:21;97881.25;;;31.39;25.62
17209;BME280;8720;48.488;9.202;2023-10-08T12:07:53;97875.84;;;31.39;25.36
17209;BME280;8720;48.488;9.202;2023-10-08T12:10:24;97874.72;;;31.41;25.57
17209;BME280;8720;48.488;9.202;2023-10-08T12:12:52;97869.56;;;31.38;25.19
17209;BME280;8720;48.488;9.202;2023-10-08T12:15:20;97872.28;;;31.38;25.20
17209;BME280;8720;48.488;9.202;2023-10-08T12:17:52;97872.56;;;31.35;25.11
17209;BME280;8720;48.488;9.202;2023-10-08T12:20:47;97867.56;;;31.30;25.32
17209;BME280;8720;48.488;9.202;2023-10-08T12:23:14;97862.47;;;31.27;25.56
17209;BME280;8720;48.488;9.202;2023-10-08T12:25:51;97844.25;;;31.20;25.26
17209;BME280;8720;48.488;9.202;2023-10-08T12:28:21;97849.34;;;31.23;25.66
17209;BME280;8720;48.488;9.202;2023-10-08T12:30:50;97856.75;;;31.21;25.47
17209;BME280;8720;48.488;9.202;2023-10-08T12:33:18;97856.91;;;31.19;25.39
17209;BME280;8720;48.488;9.202;2023-10-08T12:35:47;97856.19;;;31.17;25.27
17209;BME280;8720;48.488;9.202;2023-10-08T12:38:15;97855.50;;;31.15;25.16
17209;BME280;8720;48.488;9.202;2023-10-08T12:40:46;97851.34;;;31.11;25.46
17209;BME280;8720;48.488;9.202;2023-10-08T12:43:20;97846.38;;;31.07;25.31
17209;BME280;8720;48.488;9.202;2023-10-08T12:45:48;97849.22;;;31.05;25.51
17209;BME280;8720;48.488;9.202;2023-10-08T12:48:20;97840.00;;;30.98;25.36
17209;BME280;8720;48.488;9.202;2023-10-08T12:50:49;97842.53;;;31.00;25.14
17209;BME280;8720;48.488;9.202;2023-10-08T12:53:23;97826.19;;;30.92;25.59
17209;BME280;8720;48.488;9.202;2023-10-08T12:55:54;97834.75;;;30.97;25.45
17209;BME280;8720;48.488;9.202;2023-10-08T12:58:23;97834.28;;;30.92;25.50
17209;BME280;8720;48.488;9.202;2023-10-08T13:00:53;97827.91;;;30.93;25.38
17209;BME280;8720;48.488;9.202;2023-10-08T13:03:27;97831.59;;;30.92;24.78
17209;BME280;8720;48.488;9.202;2023-10-08T13:05:59;97819.22;;;30.89;25.07
17209;BME280;8720;48.488;9.202;2023-10-08T13:08:30;97824.34;;;30.92;25.13
17209;BME280;8720;48.488;9.202;2023-10-08T13:11:00;97821.63;;;30.92;24.72
17209;BME280;8720;48.488;9.202;2023-10-08T13:13:28;97825.19;;;30.93;24.97
17209;BME280;8720;48.488;9.202;2023-10-08T13:15:56;97822.34;;;30.94;24.59
17209;BME280;8720;48.488;9.202;2023-10-08T13:18:26;97820.63;;;30.93;25.01
17209;BME280;8720;48.488;9.202;2023-10-08T13:20:54;97812.50;;;30.93;24.74
17209;BME280;8720;48.488;9.202;2023-10-08T13:23:25;97819.66;;;30.94;25.04
17209;BME280;8720;48.488;9.202;2023-10-08T13:25:52;97817.91;;;30.93;24.87
17209;BME280;8720;48.488;9.202;2023-10-08T13:28:21;97820.78;;;30.92;24.54
17209;BME280;8720;48.488;9.202;2023-10-08T13:30:49;97811.13;;;30.89;24.69
17209;BME280;8720;48.488;9.202;2023-10-08T13:33:21;97807.41;;;30.90;24.36
17209;BME280;8720;48.488;9.202;2023-10-08T13:35:49;97795.88;;;30.88;24.38
17209;BME280;8720;48.488;9.202;2023-10-08T13:38:18;97791.34;;;30.89;24.43
17209;BME280;8720;48.488;9.202;2023-10-08T13:40:49;97779.34;;;30.82;24.47